Mountville, PA (17554)

4:07 PM EST on January 26, 2015 (GMT -0500)
Battery Ridge | Change Station
CLOSE
Current Station
Personal Weather Station
Location: Mountville, PA
Elevation: 525 ft
Nearby Weather Stations
Active Advisory: Winter Weather Advisory Active Notice: Public Information Statement

Elev 525 ft 40.05 °N, 76.42 °W | Updated 11 minutes ago

Overcast
Overcast
25.2 °F
Feels Like 25 °F
N
2.2
Wind Variable Wind from SSE

Today
High -- | Low -- °F
--% Chance of Precip.
Yesterday
High -- | Low -- °F
Precip. -- in
7:19 AM 5:17 PM
Waxing Crescent, 46% visible
Pressure 29.78 in
Visibility 0.8 miles
Clouds Mostly Cloudy 2200 ft
Overcast 3000 ft
Windchill 25 °F
Dew Point 22 °F
Humidity 87%
Rainfall 0.00 in
Snow Depth Not available.
UV 0 out of 12
Pollen .10 out of 12
Air Quality Not available.
Flu Activity Not available.
METAR KLNS 262053Z 03012KT 3/4SM -SN BKN022 OVC030 M05/M08 A2976 RMK AO2 SNB00 SLP083 P0000 60000 T10501078 56013

More Conditions Fewer Conditions

Pressure 29.78 in
Visibility 0.8 miles
Clouds Mostly Cloudy 2200 ft
Overcast 3000 ft
Windchill 25 °F
Dew Point 22 °F
Humidity 87%
Rainfall 0.00 in
Snow Depth Not available.
UV 0 out of 12
Pollen .10 out of 12
Air Quality Not available.
Flu Activity Not available.
METAR KLNS 262053Z 03012KT 3/4SM -SN BKN022 OVC030 M05/M08 A2976 RMK AO2 SNB00 SLP083 P0000 60000 T10501078 56013

More Conditions Fewer Conditions

Nowcast | as of 1:03 PM EST on January 26, 2015

Bands of snow over northern Maryland at 1 PM will continue to lift northward into the lower Susquehanna valley this afternoon. The snow will become more widespread and on the heavy side. Travel conditions will likely become poor by late afternoon. Persons traveling this afternoon should be prepared for a wide range of conditions and allow extra travel time.

×

10-Day Weather Forecast

Almanac

Astronomy

Jan. 26, 2015 Rise Set
Actual Time
Civil Twilight
Nautical Twilight
Astronomical Twilight
Moon
Length of Visible Light
Length of Day
Tomorrow will be .
, % of the Moon is Illuminated

Today's Extremes

State Highs State Lows

Community

WunderPhotos

Upload Photos

1,790,361 photos uploaded!

WunderBlogs® & News

Nearby

Air Quality

  Air Quality AQ Index Pollutant
Not available.

Snow Depth

Station Depth Elevation

Earthquake Activity

City Distance Mag. Time & Date
Minimum magnitude displayed is 2.5.

Coastal Water Temperatures

Place Temperature

Nearby Weather Stations